createdAt,value
2023-04-06T00:00:56.557Z,0.80
2023-04-06T00:03:23.602Z,0.80
2023-04-06T00:05:50.707Z,0.80
2023-04-06T00:08:17.685Z,0.80
2023-04-06T00:10:44.577Z,0.70
2023-04-06T00:13:11.674Z,0.80
2023-04-06T00:15:38.589Z,0.70
2023-04-06T00:18:05.701Z,0.80
2023-04-06T00:20:32.741Z,0.70
2023-04-06T00:22:59.701Z,0.80
2023-04-06T00:25:26.717Z,0.80
2023-04-06T00:27:53.652Z,0.80
2023-04-06T00:30:20.774Z,0.80
2023-04-06T00:32:47.808Z,0.80
2023-04-06T00:35:16.110Z,0.80
2023-04-06T00:37:43.052Z,0.80
2023-04-06T00:40:10.806Z,0.80
2023-04-06T00:42:37.865Z,0.80
2023-04-06T00:45:05.117Z,0.90
2023-04-06T00:47:32.117Z,0.90
2023-04-06T00:49:58.986Z,0.80
2023-04-06T00:52:26.188Z,0.80
2023-04-06T00:54:53.335Z,0.80
2023-04-06T00:57:20.396Z,0.80
2023-04-06T00:59:48.074Z,0.70
2023-04-06T01:02:14.961Z,0.70
2023-04-06T01:04:41.957Z,0.70
2023-04-06T01:07:08.847Z,0.70
2023-04-06T01:09:35.792Z,0.60
2023-04-06T01:12:03.141Z,0.60
2023-04-06T01:14:30.457Z,0.60
2023-04-06T01:17:00.879Z,0.60
2023-04-06T01:19:28.554Z,0.50
2023-04-06T01:21:56.006Z,0.50
2023-04-06T01:24:23.191Z,0.50
2023-04-06T01:26:50.113Z,0.50
2023-04-06T01:29:17.005Z,0.40
2023-04-06T01:31:44.045Z,0.50
2023-04-06T01:34:11.254Z,0.50
2023-04-06T01:36:38.231Z,0.50
2023-04-06T01:39:05.159Z,0.40
2023-04-06T01:41:32.073Z,0.50
2023-04-06T01:43:59.001Z,0.40
2023-04-06T01:46:26.048Z,0.40
2023-04-06T01:48:53.232Z,0.40
2023-04-06T01:51:20.217Z,0.40
2023-04-06T01:53:47.083Z,0.40
2023-04-06T01:56:14.036Z,0.40
2023-04-06T01:58:41.069Z,0.40
2023-04-06T02:01:08.711Z,0.40
2023-04-06T02:03:35.595Z,0.40
2023-04-06T02:06:02.435Z,0.40
2023-04-06T02:08:29.303Z,0.40
2023-04-06T02:10:56.169Z,0.30
2023-04-06T02:13:23.059Z,0.40
2023-04-06T02:15:49.918Z,0.30
2023-04-06T02:18:18.710Z,0.30
2023-04-06T02:20:46.759Z,0.30
2023-04-06T02:23:13.754Z,0.30
2023-04-06T02:25:41.149Z,0.20
2023-04-06T02:28:08.212Z,0.20
2023-04-06T02:30:35.203Z,0.20
2023-04-06T02:33:02.992Z,0.20
2023-04-06T02:35:31.226Z,0.10
2023-04-06T02:37:58.092Z,0.10
2023-04-06T02:40:25.039Z,0.10
2023-04-06T02:42:51.991Z,0.10
2023-04-06T02:45:18.849Z,0.10
2023-04-06T02:47:46.369Z,0.10
2023-04-06T02:50:13.305Z,0.10
2023-04-06T02:52:40.496Z,0.10
2023-04-06T02:55:08.776Z,0.10
2023-04-06T02:57:35.778Z,0.10
2023-04-06T03:00:02.692Z,0.10
2023-04-06T03:02:29.677Z,0.10
2023-04-06T03:04:56.713Z,0.10
2023-04-06T03:07:23.690Z,0.10
2023-04-06T03:09:50.824Z,0.00
2023-04-06T03:12:17.722Z,0.00
2023-04-06T03:14:44.684Z,0.00
2023-04-06T03:17:11.539Z,0.00
2023-04-06T03:19:38.428Z,0.00
2023-04-06T03:22:05.265Z,-0.10
2023-04-06T03:24:32.336Z,-0.10
2023-04-06T03:26:59.200Z,-0.10
2023-04-06T03:33:54.574Z,-0.20
2023-04-06T03:36:21.442Z,-0.10
2023-04-06T03:38:48.387Z,-0.20
2023-04-06T03:41:15.256Z,-0.20
2023-04-06T03:43:42.103Z,-0.20
2023-04-06T03:46:08.955Z,-0.20
2023-04-06T03:48:35.838Z,-0.20
2023-04-06T03:51:02.885Z,-0.20
2023-04-06T03:53:29.686Z,-0.30
2023-04-06T03:55:56.722Z,-0.30
2023-04-06T03:58:23.532Z,-0.30
2023-04-06T04:00:50.576Z,-0.30
2023-04-06T04:03:17.591Z,-0.30
2023-04-06T04:05:44.628Z,-0.40
2023-04-06T04:08:11.551Z,-0.40
2023-04-06T04:10:38.411Z,-0.40
2023-04-06T04:13:05.413Z,-0.40
2023-04-06T04:15:32.289Z,-0.40
2023-04-06T04:17:59.213Z,-0.40
2023-04-06T04:20:26.229Z,-0.50
2023-04-06T04:22:53.070Z,-0.50
2023-04-06T04:25:19.910Z,-0.50
2023-04-06T04:27:46.786Z,-0.50
2023-04-06T04:30:13.710Z,-0.50
2023-04-06T04:32:40.560Z,-0.50
2023-04-06T04:35:07.895Z,-0.50
2023-04-06T04:37:36.226Z,-0.50
2023-04-06T04:40:03.694Z,-0.50
2023-04-06T04:42:30.551Z,-0.50
2023-04-06T04:44:57.452Z,-0.50
2023-04-06T04:47:24.302Z,-0.50
2023-04-06T04:49:51.248Z,-0.50
2023-04-06T04:52:18.112Z,-0.50
2023-04-06T04:54:45.018Z,-0.50
2023-04-06T04:57:11.866Z,-0.50
2023-04-06T04:59:39.008Z,-0.50
2023-04-06T05:02:06.212Z,-0.50
2023-04-06T05:04:33.106Z,-0.50
2023-04-06T05:07:19.703Z,-0.50
2023-04-06T05:09:46.675Z,-0.40
2023-04-06T05:12:13.725Z,-0.40
2023-04-06T05:14:40.850Z,-0.40
2023-04-06T05:17:07.760Z,-0.40
2023-04-06T05:19:34.674Z,-0.30
2023-04-06T05:22:01.587Z,-0.30
2023-04-06T05:24:28.572Z,-0.20
2023-04-06T05:26:55.863Z,-0.20
2023-04-06T05:29:22.865Z,-0.10
2023-04-06T05:31:49.826Z,-0.10
2023-04-06T05:34:16.833Z,-0.10
2023-04-06T05:36:43.726Z,-0.10
2023-04-06T05:39:10.986Z,0.00
2023-04-06T05:41:38.045Z,0.00
2023-04-06T05:44:04.975Z,0.00
2023-04-06T05:46:32.629Z,0.10
2023-04-06T05:48:59.598Z,0.20
2023-04-06T05:51:27.833Z,0.20
2023-04-06T05:53:54.684Z,0.30
2023-04-06T05:56:21.625Z,0.40
2023-04-06T05:58:48.539Z,0.40
2023-04-06T06:01:15.498Z,0.50
2023-04-06T06:03:42.375Z,0.60
2023-04-06T06:06:09.256Z,0.70
2023-04-06T06:08:36.169Z,0.80
2023-04-06T06:11:03.454Z,0.90
2023-04-06T06:13:30.327Z,1.00
2023-04-06T06:15:57.327Z,1.10
2023-04-06T06:18:24.209Z,1.20
2023-04-06T06:20:51.126Z,1.30
2023-04-06T06:23:17.984Z,1.40
2023-04-06T06:25:44.904Z,1.40
2023-04-06T06:28:12.038Z,1.50
2023-04-06T06:30:38.983Z,1.60
2023-04-06T06:33:05.978Z,1.80
2023-04-06T06:35:32.921Z,1.80
2023-04-06T06:37:59.809Z,2.00
2023-04-06T06:40:28.005Z,2.00
2023-04-06T06:42:55.020Z,2.10
2023-04-06T06:45:22.118Z,2.20
2023-04-06T06:47:49.451Z,2.30
2023-04-06T06:50:16.501Z,2.30
2023-04-06T06:52:43.822Z,2.40
2023-04-06T06:55:11.930Z,2.60
2023-04-06T06:57:39.421Z,2.60
2023-04-06T07:00:08.398Z,2.70
2023-04-06T07:02:36.933Z,2.80
2023-04-06T07:05:10.188Z,2.90
2023-04-06T07:07:43.455Z,3.00
2023-04-06T07:10:10.975Z,3.10
2023-04-06T07:12:37.833Z,3.20
2023-04-06T07:15:05.995Z,3.30
2023-04-06T07:17:32.907Z,3.40
2023-04-06T07:19:59.783Z,3.50
2023-04-06T07:22:26.786Z,3.60
2023-04-06T07:24:53.640Z,3.60
2023-04-06T07:27:20.552Z,3.70
2023-04-06T07:29:47.405Z,3.80
2023-04-06T07:32:14.354Z,3.90
2023-04-06T07:34:41.263Z,4.00
2023-04-06T07:37:08.210Z,4.10
2023-04-06T07:39:35.804Z,4.10
2023-04-06T07:42:02.823Z,4.20
2023-04-06T07:44:29.759Z,4.30
2023-04-06T07:46:56.653Z,4.40
2023-04-06T07:49:24.020Z,4.40
2023-04-06T07:51:51.014Z,4.50
2023-04-06T07:54:17.856Z,4.60
2023-04-06T07:56:44.783Z,4.70
2023-04-06T07:59:12.521Z,4.80
2023-04-06T08:01:39.514Z,4.90
2023-04-06T08:04:06.708Z,4.90
2023-04-06T08:06:33.857Z,5.10
2023-04-06T08:09:00.732Z,5.20
2023-04-06T08:11:27.813Z,5.20
2023-04-06T08:13:56.747Z,5.40
2023-04-06T08:16:23.982Z,5.40
2023-04-06T08:18:51.016Z,5.50
2023-04-06T08:21:17.859Z,5.70
2023-04-06T08:23:44.942Z,5.80
2023-04-06T08:26:12.175Z,5.90
2023-04-06T08:28:39.355Z,6.00
2023-04-06T08:31:06.991Z,6.10
2023-04-06T08:33:37.544Z,6.20
2023-04-06T08:36:09.540Z,6.20
2023-04-06T08:38:37.002Z,6.30
2023-04-06T08:41:11.588Z,6.40
2023-04-06T08:43:57.328Z,6.50
2023-04-06T08:46:30.753Z,6.60
2023-04-06T08:49:03.394Z,6.60
2023-04-06T08:51:31.280Z,6.80
2023-04-06T08:53:59.614Z,6.90
2023-04-06T08:56:28.162Z,7.00
2023-04-06T08:58:56.253Z,7.10
2023-04-06T09:01:27.021Z,7.20
2023-04-06T09:04:08.878Z,7.30
2023-04-06T09:06:37.934Z,7.30
2023-04-06T09:09:05.282Z,7.40
2023-04-06T09:11:52.616Z,7.50
2023-04-06T09:14:38.769Z,7.50
2023-04-06T09:17:06.556Z,7.70
2023-04-06T09:19:33.611Z,7.70
2023-04-06T09:22:10.319Z,7.80
2023-04-06T09:24:53.846Z,7.90
2023-04-06T09:27:34.956Z,7.90
2023-04-06T09:30:05.458Z,8.10
2023-04-06T09:32:32.468Z,8.10
2023-04-06T09:35:09.681Z,8.20
2023-04-06T09:37:36.665Z,8.30
2023-04-06T09:40:08.235Z,8.30
2023-04-06T09:42:36.389Z,8.30
2023-04-06T09:45:04.316Z,8.40
2023-04-06T09:47:36.936Z,8.50
2023-04-06T09:50:04.725Z,8.60
2023-04-06T09:52:59.773Z,8.60
2023-04-06T09:55:40.797Z,8.60
2023-04-06T09:58:27.114Z,8.70
2023-04-06T10:01:00.591Z,8.70
2023-04-06T10:03:34.004Z,8.80
2023-04-06T10:06:07.010Z,8.80
2023-04-06T10:08:35.997Z,8.80
2023-04-06T10:11:03.788Z,8.90
2023-04-06T10:13:30.698Z,9.00
2023-04-06T10:15:58.378Z,9.10
2023-04-06T10:18:25.677Z,9.20
2023-04-06T10:21:22.970Z,9.30
2023-04-06T10:24:01.380Z,9.30
2023-04-06T10:26:28.371Z,9.30
2023-04-06T10:28:56.305Z,9.30
2023-04-06T10:31:29.906Z,9.40
2023-04-06T10:33:58.430Z,9.50
2023-04-06T10:36:27.521Z,9.60
2023-04-06T10:38:59.809Z,9.70
2023-04-06T10:41:49.145Z,9.70
2023-04-06T10:44:22.949Z,9.80
2023-04-06T10:47:03.701Z,9.80
2023-04-06T10:49:30.775Z,9.80
2023-04-06T10:51:57.936Z,9.90
2023-04-06T10:54:27.274Z,9.90
2023-04-06T10:56:54.144Z,9.90
2023-04-06T10:59:22.634Z,9.90
2023-04-06T11:01:49.972Z,10.00
2023-04-06T11:04:19.094Z,10.10
2023-04-06T11:06:50.916Z,10.20
2023-04-06T11:09:37.669Z,10.20
2023-04-06T11:12:04.764Z,10.30
2023-04-06T11:14:31.604Z,10.30
2023-04-06T11:16:58.506Z,10.20
2023-04-06T11:19:25.738Z,10.20
2023-04-06T11:21:52.760Z,10.30
2023-04-06T11:24:22.202Z,10.40
2023-04-06T11:26:59.550Z,10.60
2023-04-06T11:29:31.857Z,10.70
2023-04-06T11:32:02.994Z,10.70
2023-04-06T11:34:31.839Z,10.70
2023-04-06T11:37:01.118Z,10.60
2023-04-06T11:39:29.371Z,10.70
2023-04-06T11:42:05.059Z,10.70
2023-04-06T11:44:36.216Z,10.70
2023-04-06T11:47:04.166Z,10.60
2023-04-06T11:49:32.561Z,10.60
2023-04-06T11:52:00.453Z,10.70
2023-04-06T11:54:39.195Z,10.80
2023-04-06T11:57:06.686Z,10.80
2023-04-06T11:59:34.533Z,10.80
2023-04-06T12:02:03.865Z,10.70
2023-04-06T12:04:31.404Z,10.70
2023-04-06T12:06:58.941Z,10.80
2023-04-06T12:09:26.218Z,10.80
2023-04-06T12:11:53.207Z,10.90
2023-04-06T12:14:20.513Z,11.00
2023-04-06T12:16:47.545Z,11.00
2023-04-06T12:19:14.671Z,11.00
2023-04-06T12:21:41.669Z,11.10
2023-04-06T12:24:09.280Z,11.20
2023-04-06T12:26:38.242Z,11.20
2023-04-06T12:29:08.326Z,11.20
2023-04-06T12:31:46.129Z,11.30
2023-04-06T12:34:13.148Z,11.50
2023-04-06T12:36:40.150Z,11.50
2023-04-06T12:39:07.377Z,11.50
2023-04-06T12:41:34.387Z,11.60
2023-04-06T12:44:01.698Z,11.60
2023-04-06T12:46:30.695Z,11.70
2023-04-06T12:48:58.711Z,11.70
2023-04-06T12:51:28.694Z,11.70
2023-04-06T12:53:55.757Z,11.70
2023-04-06T12:56:23.514Z,11.80
2023-04-06T12:58:52.635Z,11.80
2023-04-06T13:01:19.853Z,11.90
2023-04-06T13:03:47.295Z,12.00
2023-04-06T13:06:15.720Z,11.90
2023-04-06T13:08:43.393Z,11.90
2023-04-06T13:11:10.706Z,11.80
2023-04-06T13:13:38.013Z,11.80
2023-04-06T13:16:07.789Z,11.80
2023-04-06T13:18:35.752Z,11.90
2023-04-06T13:21:02.583Z,11.90
2023-04-06T13:23:29.620Z,11.90
2023-04-06T13:26:00.949Z,11.90
2023-04-06T13:28:27.929Z,12.00
2023-04-06T13:30:55.746Z,12.10
2023-04-06T13:33:23.004Z,12.10
2023-04-06T13:35:49.881Z,12.10
2023-04-06T13:38:17.198Z,12.20
2023-04-06T13:40:44.225Z,12.10
2023-04-06T13:43:11.730Z,12.20
2023-04-06T13:45:39.458Z,12.10
2023-04-06T13:48:07.033Z,12.00
2023-04-06T13:50:35.106Z,12.00
2023-04-06T13:53:02.068Z,11.90
2023-04-06T13:55:28.930Z,11.90
2023-04-06T13:57:56.129Z,12.00
2023-04-06T14:00:23.308Z,12.00
2023-04-06T14:02:50.254Z,12.00
2023-04-06T14:05:17.382Z,12.00
2023-04-06T14:07:44.201Z,12.00
2023-04-06T14:10:14.864Z,11.90
2023-04-06T14:12:45.715Z,11.90
2023-04-06T14:15:13.221Z,11.90
2023-04-06T14:17:40.684Z,11.90
2023-04-06T14:20:08.081Z,11.90
2023-04-06T14:22:35.272Z,11.80
2023-04-06T14:25:02.151Z,11.80
2023-04-06T14:27:28.961Z,11.80
2023-04-06T14:29:55.922Z,11.90
2023-04-06T14:32:22.888Z,11.90
2023-04-06T14:34:49.796Z,11.80
2023-04-06T14:37:18.477Z,11.80
2023-04-06T14:39:45.528Z,11.90
2023-04-06T14:42:12.319Z,11.80
2023-04-06T14:44:43.713Z,11.80
2023-04-06T14:47:11.128Z,11.80
2023-04-06T14:49:38.209Z,11.80
2023-04-06T14:52:05.980Z,11.80
2023-04-06T14:54:32.834Z,11.80
2023-04-06T14:56:59.686Z,11.80
2023-04-06T14:59:26.582Z,11.90
2023-04-06T15:01:53.528Z,11.90
2023-04-06T15:04:20.786Z,11.90
2023-04-06T15:06:47.645Z,12.00
2023-04-06T15:09:14.469Z,12.00
2023-04-06T15:11:41.297Z,11.90
2023-04-06T15:14:08.136Z,11.90
2023-04-06T15:16:36.133Z,11.90
2023-04-06T15:19:03.142Z,11.90
2023-04-06T15:21:29.975Z,11.90
2023-04-06T15:23:57.657Z,11.90
2023-04-06T15:26:24.486Z,11.90
2023-04-06T15:28:51.410Z,11.80
2023-04-06T15:31:36.072Z,11.80
2023-04-06T15:34:04.210Z,11.80
2023-04-06T15:36:31.326Z,11.80
2023-04-06T15:38:59.232Z,11.80
2023-04-06T15:41:29.230Z,11.80
2023-04-06T15:43:56.330Z,11.70
2023-04-06T15:46:23.909Z,11.70
2023-04-06T15:48:50.866Z,11.70
2023-04-06T15:51:18.000Z,11.60
2023-04-06T15:53:45.503Z,11.70
2023-04-06T15:56:14.444Z,11.70
2023-04-06T15:58:42.282Z,11.60
2023-04-06T16:01:17.273Z,11.60
2023-04-06T16:03:44.704Z,11.50
2023-04-06T16:06:12.055Z,11.50
2023-04-06T16:08:40.866Z,11.50
2023-04-06T16:11:08.055Z,11.50
2023-04-06T16:13:36.021Z,11.50
2023-04-06T16:16:04.119Z,11.40
2023-04-06T16:18:32.544Z,11.40
2023-04-06T16:21:00.645Z,11.40
2023-04-06T16:23:27.584Z,11.50
2023-04-06T16:25:54.474Z,11.50
2023-04-06T16:28:23.276Z,11.50
2023-04-06T16:30:50.056Z,11.50
2023-04-06T16:33:19.313Z,11.50
2023-04-06T16:35:47.288Z,11.40
2023-04-06T16:38:15.147Z,11.50
2023-04-06T16:40:42.216Z,11.50
2023-04-06T16:43:10.055Z,11.50
2023-04-06T16:45:38.069Z,11.50
2023-04-06T16:48:06.109Z,11.40
2023-04-06T16:50:33.284Z,11.40
2023-04-06T16:53:00.283Z,11.40
2023-04-06T16:55:27.088Z,11.40
2023-04-06T16:57:57.071Z,11.40
2023-04-06T17:00:24.301Z,11.40
2023-04-06T17:02:51.432Z,11.30
2023-04-06T17:05:24.603Z,11.30
2023-04-06T17:07:51.710Z,11.20
2023-04-06T17:10:23.917Z,11.10
2023-04-06T17:12:59.990Z,11.10
2023-04-06T17:15:28.543Z,11.00
2023-04-06T17:17:55.540Z,11.00
2023-04-06T17:20:22.483Z,10.90
2023-04-06T17:22:49.817Z,10.80
2023-04-06T17:25:17.012Z,10.60
2023-04-06T17:27:44.222Z,10.60
2023-04-06T17:30:12.162Z,10.50
2023-04-06T17:32:39.389Z,10.40
2023-04-06T17:35:06.621Z,10.30
2023-04-06T17:37:33.427Z,10.20
2023-04-06T17:40:00.500Z,10.10
2023-04-06T17:42:27.614Z,10.00
2023-04-06T17:44:54.514Z,9.90
2023-04-06T17:47:21.391Z,9.70
2023-04-06T17:49:49.128Z,9.60
2023-04-06T17:52:16.115Z,9.50
2023-04-06T17:54:43.084Z,9.50
2023-04-06T17:57:09.984Z,9.40
2023-04-06T17:59:36.774Z,9.40
2023-04-06T18:02:04.394Z,9.30
2023-04-06T18:04:31.509Z,9.20
2023-04-06T18:06:58.586Z,9.10
2023-04-06T18:11:53.226Z,9.00
2023-04-06T18:14:20.124Z,8.90
2023-04-06T18:16:46.982Z,8.90
2023-04-06T18:19:14.541Z,8.90
2023-04-06T18:21:41.606Z,8.80
2023-04-06T18:24:12.353Z,8.80
2023-04-06T18:26:42.026Z,8.70
2023-04-06T18:29:08.939Z,8.70
2023-04-06T18:34:03.464Z,8.70
2023-04-06T18:36:31.394Z,8.70
2023-04-06T18:38:58.199Z,8.70
2023-04-06T18:41:25.020Z,8.70
2023-04-06T18:43:52.005Z,8.70
2023-04-06T18:46:22.599Z,8.60
2023-04-06T18:48:49.550Z,8.60
2023-04-06T18:51:16.397Z,8.60
2023-04-06T18:53:43.231Z,8.50
2023-04-06T18:56:15.647Z,8.50
2023-04-06T18:58:45.703Z,8.50
2023-04-06T19:01:24.424Z,8.40
2023-04-06T19:03:53.703Z,8.40
2023-04-06T19:06:21.502Z,8.40
2023-04-06T19:08:48.853Z,8.30
2023-04-06T19:11:16.596Z,8.30
2023-04-06T19:16:41.055Z,8.30
2023-04-06T19:19:08.410Z,8.20
2023-04-06T19:21:35.269Z,8.10
2023-04-06T19:24:02.318Z,8.10
2023-04-06T19:26:30.539Z,8.10
2023-04-06T19:28:57.380Z,8.00
2023-04-06T19:31:24.417Z,8.00
2023-04-06T19:33:51.991Z,7.90
2023-04-06T19:36:18.893Z,7.80
2023-04-06T19:38:45.856Z,7.80
2023-04-06T19:41:12.782Z,7.90
2023-04-06T19:43:39.669Z,7.80
2023-04-06T19:46:08.906Z,7.80
2023-04-06T19:48:35.852Z,7.80
2023-04-06T19:51:02.646Z,7.80
2023-04-06T19:53:29.546Z,7.80
2023-04-06T19:55:56.352Z,7.80
2023-04-06T19:58:23.745Z,7.80
2023-04-06T20:00:50.705Z,7.80
2023-04-06T20:03:17.876Z,7.70
2023-04-06T20:05:44.978Z,7.70
2023-04-06T20:08:11.783Z,7.70
2023-04-06T20:10:38.836Z,7.70
2023-04-06T20:13:05.974Z,7.70
2023-04-06T20:15:32.765Z,7.60
2023-04-06T20:17:59.617Z,7.60
2023-04-06T20:20:26.482Z,7.60
2023-04-06T20:22:53.269Z,7.50
2023-04-06T20:25:20.111Z,7.50
2023-04-06T20:27:46.927Z,7.50
2023-04-06T20:30:15.233Z,7.40
2023-04-06T20:32:42.302Z,7.40
2023-04-06T20:35:09.516Z,7.40
2023-04-06T20:37:39.537Z,7.40
2023-04-06T20:40:06.922Z,7.30
2023-04-06T20:42:34.468Z,7.30
2023-04-06T20:45:02.815Z,7.20
2023-04-06T20:47:30.363Z,7.30
2023-04-06T20:49:57.398Z,7.20
2023-04-06T20:52:24.323Z,7.20
2023-04-06T20:54:51.127Z,7.20
2023-04-06T20:57:18.496Z,7.20
2023-04-06T20:59:45.578Z,7.20
2023-04-06T21:02:12.954Z,7.10
2023-04-06T21:04:40.336Z,7.10
2023-04-06T21:07:07.877Z,7.00
2023-04-06T21:09:39.308Z,7.00
2023-04-06T21:12:06.916Z,7.00
2023-04-06T21:14:33.918Z,6.90
2023-04-06T21:17:00.854Z,6.90
2023-04-06T21:19:27.917Z,6.90
2023-04-06T21:21:55.070Z,6.80
2023-04-06T21:24:21.955Z,6.80
2023-04-06T21:26:49.013Z,6.70
2023-04-06T21:29:15.916Z,6.70
2023-04-06T21:31:42.880Z,6.60
2023-04-06T21:34:13.582Z,6.60
2023-04-06T21:36:41.621Z,6.50
2023-04-06T21:39:09.076Z,6.50
2023-04-06T21:41:36.038Z,6.40
2023-04-06T21:44:02.925Z,6.40
2023-04-06T21:46:29.843Z,6.40
2023-04-06T21:48:57.349Z,6.30
2023-04-06T21:51:24.535Z,6.30
2023-04-06T21:53:53.102Z,6.30
2023-04-06T21:56:24.160Z,6.20
2023-04-06T21:58:52.051Z,6.20
2023-04-06T22:01:19.642Z,6.20
2023-04-06T22:03:47.199Z,6.10
2023-04-06T22:06:14.345Z,6.10
2023-04-06T22:08:41.231Z,6.10
2023-04-06T22:11:09.792Z,6.00
2023-04-06T22:13:37.462Z,6.10
2023-04-06T22:16:05.258Z,6.00
2023-04-06T22:18:32.243Z,6.00
2023-04-06T22:20:59.471Z,6.00
2023-04-06T22:23:26.313Z,5.90
2023-04-06T22:25:53.329Z,5.90
2023-04-06T22:28:20.208Z,5.80
2023-04-06T22:30:46.987Z,5.80
2023-04-06T22:33:13.943Z,5.80
2023-04-06T22:35:41.018Z,5.70
2023-04-06T22:38:08.028Z,5.70
2023-04-06T22:40:34.833Z,5.70
2023-04-06T22:43:01.623Z,5.60
2023-04-06T22:45:28.398Z,5.60
2023-04-06T22:47:55.246Z,5.50
2023-04-06T22:50:22.576Z,5.50
2023-04-06T22:52:49.546Z,5.50
2023-04-06T22:55:16.364Z,5.50
2023-04-06T22:57:43.229Z,5.50
2023-04-06T23:00:10.670Z,5.50
2023-04-06T23:02:37.797Z,5.50
2023-04-06T23:05:05.025Z,5.50
2023-04-06T23:07:32.867Z,5.40
2023-04-06T23:09:59.848Z,5.40
2023-04-06T23:12:26.783Z,5.40
2023-04-06T23:14:53.696Z,5.40
2023-04-06T23:17:20.622Z,5.40
2023-04-06T23:19:47.500Z,5.30
2023-04-06T23:22:14.326Z,5.30
2023-04-06T23:24:41.472Z,5.20
2023-04-06T23:27:08.319Z,5.20
2023-04-06T23:29:35.092Z,5.20
2023-04-06T23:32:02.055Z,5.20
2023-04-06T23:34:28.933Z,5.20
2023-04-06T23:36:55.743Z,5.10
2023-04-06T23:39:22.661Z,5.10
2023-04-06T23:41:49.510Z,5.10
2023-04-06T23:44:16.414Z,5.00
2023-04-06T23:46:43.230Z,5.00
2023-04-06T23:49:10.101Z,5.00
2023-04-06T23:51:36.889Z,4.90
2023-04-06T23:54:04.850Z,4.90
2023-04-06T23:56:31.799Z,4.90
2023-04-06T23:58:58.653Z,4.90
